sensor_id;sensor_type;location;lat;lon;timestamp;pressure;altitude;pressure_sealevel;temperature;humidity
8286;BME280;4181;43.416;24.598;2023-05-09T00:00:11;100196.41;;;13.89;100.00
8286;BME280;4181;43.416;24.598;2023-05-09T00:02:40;100187.59;;;13.82;100.00
8286;BME280;4181;43.416;24.598;2023-05-09T00:05:06;100180.97;;;13.58;100.00
8286;BME280;4181;43.416;24.598;2023-05-09T00:07:32;100173.03;;;13.72;100.00
8286;BME280;4181;43.416;24.598;2023-05-09T00:09:58;100178.50;;;13.62;100.00
8286;BME280;4181;43.416;24.598;2023-05-09T00:12:25;100185.94;;;13.66;100.00
8286;BME280;4181;43.416;24.598;2023-05-09T00:14:51;100185.13;;;13.71;100.00
8286;BME280;4181;43.416;24.598;2023-05-09T00:17:19;100188.63;;;13.51;100.00
8286;BME280;4181;43.416;24.598;2023-05-09T00:19:50;100181.69;;;13.34;100.00
8286;BME280;4181;43.416;24.598;2023-05-09T00:22:19;100162.75;;;13.22;100.00
8286;BME280;4181;43.416;24.598;2023-05-09T00:24:48;100151.84;;;13.42;100.00
8286;BME280;4181;43.416;24.598;2023-05-09T00:27:14;100142.84;;;13.57;100.00
8286;BME280;4181;43.416;24.598;2023-05-09T00:29:40;100153.56;;;13.53;100.00
8286;BME280;4181;43.416;24.598;2023-05-09T00:32:05;100155.19;;;13.49;100.00
8286;BME280;4181;43.416;24.598;2023-05-09T00:34:31;100164.97;;;13.35;100.00
8286;BME280;4181;43.416;24.598;2023-05-09T00:36:56;100161.94;;;13.22;100.00
8286;BME280;4181;43.416;24.598;2023-05-09T00:39:22;100164.59;;;13.02;100.00
8286;BME280;4181;43.416;24.598;2023-05-09T00:41:47;100140.13;;;12.95;100.00
8286;BME280;4181;43.416;24.598;2023-05-09T00:44:13;100143.41;;;12.97;100.00
8286;BME280;4181;43.416;24.598;2023-05-09T00:46:38;100132.72;;;12.91;100.00
8286;BME280;4181;43.416;24.598;2023-05-09T00:49:04;100135.16;;;12.87;100.00
8286;BME280;4181;43.416;24.598;2023-05-09T00:51:30;100149.31;;;12.74;100.00
8286;BME280;4181;43.416;24.598;2023-05-09T00:53:57;100161.09;;;12.74;100.00
8286;BME280;4181;43.416;24.598;2023-05-09T00:56:22;100153.66;;;12.65;100.00
8286;BME280;4181;43.416;24.598;2023-05-09T00:58:48;100148.50;;;12.73;100.00
8286;BME280;4181;43.416;24.598;2023-05-09T01:01:14;100139.59;;;12.46;100.00
8286;BME280;4181;43.416;24.598;2023-05-09T01:03:41;100123.03;;;12.68;100.00
8286;BME280;4181;43.416;24.598;2023-05-09T01:09:24;100126.94;;;12.40;100.00
8286;BME280;4181;43.416;24.598;2023-05-09T01:17:33;100125.56;;;12.01;100.00
8286;BME280;4181;43.416;24.598;2023-05-09T01:22:42;100104.19;;;12.30;100.00
8286;BME280;4181;43.416;24.598;2023-05-09T01:28:07;100101.56;;;12.50;100.00
8286;BME280;4181;43.416;24.598;2023-05-09T01:30:37;100096.63;;;12.10;100.00
8286;BME280;4181;43.416;24.598;2023-05-09T01:33:05;100088.91;;;12.39;100.00
8286;BME280;4181;43.416;24.598;2023-05-09T01:35:32;100098.97;;;12.33;100.00
8286;BME280;4181;43.416;24.598;2023-05-09T01:38:01;100118.59;;;12.20;100.00
8286;BME280;4181;43.416;24.598;2023-05-09T01:40:30;100117.22;;;12.18;100.00
8286;BME280;4181;43.416;24.598;2023-05-09T01:43:01;100113.53;;;12.02;100.00
8286;BME280;4181;43.416;24.598;2023-05-09T01:45:29;100117.06;;;11.98;100.00
8286;BME280;4181;43.416;24.598;2023-05-09T01:47:56;100124.06;;;11.89;100.00
8286;BME280;4181;43.416;24.598;2023-05-09T01:50:23;100119.66;;;11.83;100.00
8286;BME280;4181;43.416;24.598;2023-05-09T01:52:53;100103.88;;;11.90;100.00
8286;BME280;4181;43.416;24.598;2023-05-09T01:55:21;100094.53;;;11.86;100.00
8286;BME280;4181;43.416;24.598;2023-05-09T01:57:50;100098.47;;;12.00;100.00
8286;BME280;4181;43.416;24.598;2023-05-09T02:00:16;100084.94;;;12.15;100.00
8286;BME280;4181;43.416;24.598;2023-05-09T02:02:43;100094.72;;;12.11;100.00
8286;BME280;4181;43.416;24.598;2023-05-09T02:05:10;100125.31;;;12.03;100.00
8286;BME280;4181;43.416;24.598;2023-05-09T02:07:36;100126.81;;;11.89;100.00
8286;BME280;4181;43.416;24.598;2023-05-09T02:10:06;100131.97;;;11.85;100.00
8286;BME280;4181;43.416;24.598;2023-05-09T02:12:33;100124.28;;;11.82;100.00
8286;BME280;4181;43.416;24.598;2023-05-09T02:14:58;100114.94;;;12.05;100.00
8286;BME280;4181;43.416;24.598;2023-05-09T02:17:24;100136.75;;;12.00;100.00
8286;BME280;4181;43.416;24.598;2023-05-09T02:19:49;100130.16;;;11.96;100.00
8286;BME280;4181;43.416;24.598;2023-05-09T02:22:15;100135.00;;;11.89;100.00
8286;BME280;4181;43.416;24.598;2023-05-09T02:24:42;100121.56;;;11.82;100.00
8286;BME280;4181;43.416;24.598;2023-05-09T02:27:09;100124.59;;;11.86;100.00
8286;BME280;4181;43.416;24.598;2023-05-09T02:29:40;100133.44;;;11.66;100.00
8286;BME280;4181;43.416;24.598;2023-05-09T02:32:28;100122.81;;;11.70;100.00
8286;BME280;4181;43.416;24.598;2023-05-09T02:34:56;100111.50;;;11.88;100.00
8286;BME280;4181;43.416;24.598;2023-05-09T02:37:23;100116.31;;;11.76;100.00
8286;BME280;4181;43.416;24.598;2023-05-09T02:39:49;100110.88;;;11.81;100.00
8286;BME280;4181;43.416;24.598;2023-05-09T02:42:23;100128.06;;;11.76;100.00
8286;BME280;4181;43.416;24.598;2023-05-09T02:44:52;100130.97;;;11.65;100.00
8286;BME280;4181;43.416;24.598;2023-05-09T02:47:18;100131.75;;;11.65;100.00
8286;BME280;4181;43.416;24.598;2023-05-09T02:49:44;100120.38;;;11.46;100.00
8286;BME280;4181;43.416;24.598;2023-05-09T02:52:09;100115.56;;;11.59;100.00
8286;BME280;4181;43.416;24.598;2023-05-09T02:54:36;100122.53;;;11.44;100.00
8286;BME280;4181;43.416;24.598;2023-05-09T02:57:02;100110.81;;;11.49;100.00
8286;BME280;4181;43.416;24.598;2023-05-09T02:59:27;100116.28;;;11.49;100.00
8286;BME280;4181;43.416;24.598;2023-05-09T03:01:53;100112.72;;;11.48;100.00
8286;BME280;4181;43.416;24.598;2023-05-09T03:04:18;100092.84;;;11.53;100.00
8286;BME280;4181;43.416;24.598;2023-05-09T03:06:44;100111.91;;;11.48;100.00
8286;BME280;4181;43.416;24.598;2023-05-09T03:09:10;100113.97;;;11.36;100.00
8286;BME280;4181;43.416;24.598;2023-05-09T03:11:35;100118.28;;;11.32;100.00
8286;BME280;4181;43.416;24.598;2023-05-09T03:14:02;100100.47;;;11.51;100.00
8286;BME280;4181;43.416;24.598;2023-05-09T03:16:27;100103.13;;;11.46;100.00
8286;BME280;4181;43.416;24.598;2023-05-09T03:18:53;100096.00;;;11.45;100.00
8286;BME280;4181;43.416;24.598;2023-05-09T03:21:18;100096.41;;;11.59;100.00
8286;BME280;4181;43.416;24.598;2023-05-09T03:23:44;100114.69;;;11.53;100.00
8286;BME280;4181;43.416;24.598;2023-05-09T03:26:09;100128.94;;;11.60;100.00
8286;BME280;4181;43.416;24.598;2023-05-09T03:28:34;100124.50;;;11.76;100.00
8286;BME280;4181;43.416;24.598;2023-05-09T03:31:00;100133.28;;;11.78;100.00
8286;BME280;4181;43.416;24.598;2023-05-09T03:33:25;100156.94;;;11.67;100.00
8286;BME280;4181;43.416;24.598;2023-05-09T03:35:51;100165.13;;;11.45;100.00
8286;BME280;4181;43.416;24.598;2023-05-09T03:38:16;100152.94;;;11.53;100.00
8286;BME280;4181;43.416;24.598;2023-05-09T03:40:42;100151.47;;;11.45;100.00
8286;BME280;4181;43.416;24.598;2023-05-09T03:43:07;100157.00;;;11.50;100.00
8286;BME280;4181;43.416;24.598;2023-05-09T03:45:33;100144.81;;;11.58;100.00
8286;BME280;4181;43.416;24.598;2023-05-09T03:48:00;100145.78;;;11.74;100.00
8286;BME280;4181;43.416;24.598;2023-05-09T03:50:28;100165.19;;;11.50;100.00
8286;BME280;4181;43.416;24.598;2023-05-09T03:52:53;100177.16;;;11.44;100.00
8286;BME280;4181;43.416;24.598;2023-05-09T03:55:20;100172.38;;;11.35;100.00
8286;BME280;4181;43.416;24.598;2023-05-09T03:57:47;100176.66;;;11.47;100.00
8286;BME280;4181;43.416;24.598;2023-05-09T04:00:13;100184.03;;;11.25;100.00
8286;BME280;4181;43.416;24.598;2023-05-09T04:02:40;100174.44;;;11.44;100.00
8286;BME280;4181;43.416;24.598;2023-05-09T04:05:06;100173.78;;;11.37;100.00
8286;BME280;4181;43.416;24.598;2023-05-09T04:07:31;100162.47;;;11.50;100.00
8286;BME280;4181;43.416;24.598;2023-05-09T04:09:57;100161.19;;;11.58;100.00
8286;BME280;4181;43.416;24.598;2023-05-09T04:12:23;100176.25;;;11.61;100.00
8286;BME280;4181;43.416;24.598;2023-05-09T04:14:48;100177.47;;;11.48;100.00
8286;BME280;4181;43.416;24.598;2023-05-09T04:17:14;100189.22;;;11.48;100.00
8286;BME280;4181;43.416;24.598;2023-05-09T04:19:39;100192.41;;;11.40;100.00
8286;BME280;4181;43.416;24.598;2023-05-09T04:22:04;100167.97;;;11.29;100.00
8286;BME280;4181;43.416;24.598;2023-05-09T04:24:30;100171.81;;;11.55;100.00
8286;BME280;4181;43.416;24.598;2023-05-09T04:26:56;100179.31;;;11.42;100.00
8286;BME280;4181;43.416;24.598;2023-05-09T04:29:21;100177.56;;;11.31;100.00
8286;BME280;4181;43.416;24.598;2023-05-09T04:31:47;100181.53;;;11.45;100.00
8286;BME280;4181;43.416;24.598;2023-05-09T04:34:12;100186.94;;;11.40;100.00
8286;BME280;4181;43.416;24.598;2023-05-09T04:36:38;100196.72;;;11.15;100.00
8286;BME280;4181;43.416;24.598;2023-05-09T04:39:03;100193.13;;;11.31;100.00
8286;BME280;4181;43.416;24.598;2023-05-09T04:41:32;100202.63;;;11.28;100.00
8286;BME280;4181;43.416;24.598;2023-05-09T04:43:57;100198.13;;;11.17;100.00
8286;BME280;4181;43.416;24.598;2023-05-09T04:46:23;100189.69;;;11.19;100.00
8286;BME280;4181;43.416;24.598;2023-05-09T04:48:48;100187.97;;;11.34;100.00
8286;BME280;4181;43.416;24.598;2023-05-09T04:51:14;100177.03;;;11.34;100.00
8286;BME280;4181;43.416;24.598;2023-05-09T04:53:39;100186.44;;;11.43;100.00
8286;BME280;4181;43.416;24.598;2023-05-09T04:56:05;100193.50;;;11.39;100.00
8286;BME280;4181;43.416;24.598;2023-05-09T04:58:30;100201.50;;;11.24;100.00
8286;BME280;4181;43.416;24.598;2023-05-09T05:00:58;100180.22;;;11.26;100.00
8286;BME280;4181;43.416;24.598;2023-05-09T05:03:25;100190.50;;;11.19;100.00
8286;BME280;4181;43.416;24.598;2023-05-09T05:05:50;100181.47;;;11.40;100.00
8286;BME280;4181;43.416;24.598;2023-05-09T05:08:16;100185.94;;;11.46;100.00
8286;BME280;4181;43.416;24.598;2023-05-09T05:10:41;100185.56;;;11.38;100.00
8286;BME280;4181;43.416;24.598;2023-05-09T05:13:07;100190.63;;;11.29;100.00
8286;BME280;4181;43.416;24.598;2023-05-09T05:15:32;100182.06;;;11.42;100.00
8286;BME280;4181;43.416;24.598;2023-05-09T05:17:57;100183.81;;;11.53;100.00
8286;BME280;4181;43.416;24.598;2023-05-09T05:20:23;100185.63;;;11.43;100.00
8286;BME280;4181;43.416;24.598;2023-05-09T05:22:48;100195.91;;;11.36;100.00
8286;BME280;4181;43.416;24.598;2023-05-09T05:25:14;100198.97;;;11.18;100.00
8286;BME280;4181;43.416;24.598;2023-05-09T05:27:41;100185.44;;;11.28;100.00
8286;BME280;4181;43.416;24.598;2023-05-09T05:30:07;100181.22;;;11.20;100.00
8286;BME280;4181;43.416;24.598;2023-05-09T05:32:33;100169.53;;;11.25;100.00
8286;BME280;4181;43.416;24.598;2023-05-09T05:34:58;100168.78;;;11.29;100.00
8286;BME280;4181;43.416;24.598;2023-05-09T05:37:24;100169.50;;;11.41;100.00
8286;BME280;4181;43.416;24.598;2023-05-09T05:39:49;100176.03;;;11.19;100.00
8286;BME280;4181;43.416;24.598;2023-05-09T05:42:16;100182.38;;;11.24;100.00
8286;BME280;4181;43.416;24.598;2023-05-09T05:44:41;100183.56;;;11.33;100.00
8286;BME280;4181;43.416;24.598;2023-05-09T05:47:06;100199.22;;;11.16;100.00
8286;BME280;4181;43.416;24.598;2023-05-09T05:49:32;100184.28;;;11.24;100.00
8286;BME280;4181;43.416;24.598;2023-05-09T05:51:57;100189.88;;;11.34;100.00
8286;BME280;4181;43.416;24.598;2023-05-09T05:54:23;100186.81;;;11.30;100.00
8286;BME280;4181;43.416;24.598;2023-05-09T05:56:48;100197.09;;;11.23;100.00
8286;BME280;4181;43.416;24.598;2023-05-09T05:59:14;100196.91;;;11.30;100.00
8286;BME280;4181;43.416;24.598;2023-05-09T06:01:40;100190.63;;;11.29;100.00
8286;BME280;4181;43.416;24.598;2023-05-09T06:04:05;100196.91;;;11.08;100.00
8286;BME280;4181;43.416;24.598;2023-05-09T06:06:31;100201.31;;;11.09;100.00
8286;BME280;4181;43.416;24.598;2023-05-09T06:08:56;100193.56;;;11.23;100.00
8286;BME280;4181;43.416;24.598;2023-05-09T06:11:22;100189.03;;;11.33;100.00
8286;BME280;4181;43.416;24.598;2023-05-09T06:13:47;100193.88;;;11.26;100.00
8286;BME280;4181;43.416;24.598;2023-05-09T06:16:13;100201.69;;;11.39;100.00
8286;BME280;4181;43.416;24.598;2023-05-09T06:18:38;100215.16;;;11.24;100.00
8286;BME280;4181;43.416;24.598;2023-05-09T06:21:05;100215.34;;;11.18;100.00
8286;BME280;4181;43.416;24.598;2023-05-09T06:23:30;100211.00;;;11.22;100.00
8286;BME280;4181;43.416;24.598;2023-05-09T06:25:56;100225.75;;;11.21;100.00
8286;BME280;4181;43.416;24.598;2023-05-09T06:28:21;100216.28;;;11.07;100.00
8286;BME280;4181;43.416;24.598;2023-05-09T06:30:47;100211.91;;;11.06;100.00
8286;BME280;4181;43.416;24.598;2023-05-09T06:33:12;100201.88;;;11.11;100.00
8286;BME280;4181;43.416;24.598;2023-05-09T06:35:38;100215.06;;;10.98;100.00
8286;BME280;4181;43.416;24.598;2023-05-09T06:38:03;100206.25;;;11.12;100.00
8286;BME280;4181;43.416;24.598;2023-05-09T06:40:29;100212.88;;;11.16;100.00
8286;BME280;4181;43.416;24.598;2023-05-09T06:42:54;100210.06;;;11.11;100.00
8286;BME280;4181;43.416;24.598;2023-05-09T06:45:20;100227.53;;;11.32;100.00
8286;BME280;4181;43.416;24.598;2023-05-09T06:47:45;100211.66;;;11.29;100.00
8286;BME280;4181;43.416;24.598;2023-05-09T06:50:11;100219.84;;;11.29;100.00
8286;BME280;4181;43.416;24.598;2023-05-09T06:52:36;100230.00;;;11.33;100.00
8286;BME280;4181;43.416;24.598;2023-05-09T06:55:02;100239.56;;;11.31;100.00
8286;BME280;4181;43.416;24.598;2023-05-09T06:57:28;100245.47;;;11.44;100.00
8286;BME280;4181;43.416;24.598;2023-05-09T06:59:54;100227.31;;;11.60;100.00
8286;BME280;4181;43.416;24.598;2023-05-09T07:02:20;100225.06;;;11.74;100.00
8286;BME280;4181;43.416;24.598;2023-05-09T07:04:46;100240.59;;;11.68;100.00
8286;BME280;4181;43.416;24.598;2023-05-09T07:07:11;100250.72;;;11.51;100.00
8286;BME280;4181;43.416;24.598;2023-05-09T07:09:37;100253.28;;;11.58;100.00
8286;BME280;4181;43.416;24.598;2023-05-09T07:12:02;100256.13;;;11.46;100.00
8286;BME280;4181;43.416;24.598;2023-05-09T07:14:28;100261.91;;;11.49;100.00
8286;BME280;4181;43.416;24.598;2023-05-09T07:16:53;100248.78;;;11.46;100.00
8286;BME280;4181;43.416;24.598;2023-05-09T07:19:18;100238.47;;;11.32;100.00
8286;BME280;4181;43.416;24.598;2023-05-09T07:21:44;100237.78;;;11.41;100.00
8286;BME280;4181;43.416;24.598;2023-05-09T07:24:10;100229.56;;;11.63;100.00
8286;BME280;4181;43.416;24.598;2023-05-09T07:26:35;100236.31;;;11.56;100.00
8286;BME280;4181;43.416;24.598;2023-05-09T07:29:01;100235.88;;;11.64;100.00
8286;BME280;4181;43.416;24.598;2023-05-09T07:31:26;100244.31;;;11.62;100.00
8286;BME280;4181;43.416;24.598;2023-05-09T07:33:52;100226.16;;;11.73;100.00
8286;BME280;4181;43.416;24.598;2023-05-09T07:36:17;100230.00;;;11.77;100.00
8286;BME280;4181;43.416;24.598;2023-05-09T07:38:43;100242.50;;;11.68;100.00
8286;BME280;4181;43.416;24.598;2023-05-09T07:41:12;100252.19;;;11.59;100.00
8286;BME280;4181;43.416;24.598;2023-05-09T07:43:37;100241.13;;;11.48;100.00
8286;BME280;4181;43.416;24.598;2023-05-09T07:46:03;100235.25;;;11.57;100.00
8286;BME280;4181;43.416;24.598;2023-05-09T07:48:28;100240.19;;;11.60;100.00
8286;BME280;4181;43.416;24.598;2023-05-09T07:50:54;100234.47;;;11.39;100.00
8286;BME280;4181;43.416;24.598;2023-05-09T07:53:19;100231.75;;;11.39;100.00
8286;BME280;4181;43.416;24.598;2023-05-09T07:55:45;100226.84;;;11.41;100.00
8286;BME280;4181;43.416;24.598;2023-05-09T07:58:12;100216.22;;;11.45;100.00
8286;BME280;4181;43.416;24.598;2023-05-09T08:00:38;100202.13;;;11.53;100.00
8286;BME280;4181;43.416;24.598;2023-05-09T08:03:03;100198.69;;;11.63;100.00
8286;BME280;4181;43.416;24.598;2023-05-09T08:05:32;100193.81;;;11.65;100.00
8286;BME280;4181;43.416;24.598;2023-05-09T08:07:57;100198.63;;;11.58;100.00
8286;BME280;4181;43.416;24.598;2023-05-09T08:10:25;100209.69;;;11.68;100.00
8286;BME280;4181;43.416;24.598;2023-05-09T08:12:54;100201.09;;;11.59;100.00
8286;BME280;4181;43.416;24.598;2023-05-09T08:15:20;100203.50;;;11.77;100.00
8286;BME280;4181;43.416;24.598;2023-05-09T08:17:45;100201.97;;;11.86;100.00
8286;BME280;4181;43.416;24.598;2023-05-09T08:20:11;100226.00;;;11.63;100.00
8286;BME280;4181;43.416;24.598;2023-05-09T08:22:38;100224.53;;;11.77;100.00
8286;BME280;4181;43.416;24.598;2023-05-09T08:25:05;100240.66;;;11.73;100.00
8286;BME280;4181;43.416;24.598;2023-05-09T08:27:30;100252.75;;;11.61;100.00
8286;BME280;4181;43.416;24.598;2023-05-09T08:29:55;100257.59;;;11.53;100.00
8286;BME280;4181;43.416;24.598;2023-05-09T08:32:21;100253.28;;;11.58;100.00
8286;BME280;4181;43.416;24.598;2023-05-09T08:34:46;100244.72;;;11.71;100.00
8286;BME280;4181;43.416;24.598;2023-05-09T08:37:12;100246.97;;;11.79;100.00
8286;BME280;4181;43.416;24.598;2023-05-09T08:39:37;100250.59;;;11.84;100.00
8286;BME280;4181;43.416;24.598;2023-05-09T08:42:03;100272.09;;;11.76;100.00
8286;BME280;4181;43.416;24.598;2023-05-09T08:44:29;100260.41;;;11.80;100.00
8286;BME280;4181;43.416;24.598;2023-05-09T08:46:58;100279.09;;;11.88;100.00
8286;BME280;4181;43.416;24.598;2023-05-09T08:49:24;100284.97;;;12.02;100.00
8286;BME280;4181;43.416;24.598;2023-05-09T08:51:54;100280.69;;;12.11;100.00
8286;BME280;4181;43.416;24.598;2023-05-09T08:54:23;100281.91;;;12.20;100.00
8286;BME280;4181;43.416;24.598;2023-05-09T08:56:49;100282.44;;;12.22;100.00
8286;BME280;4181;43.416;24.598;2023-05-09T08:59:16;100285.19;;;12.22;100.00
8286;BME280;4181;43.416;24.598;2023-05-09T09:01:42;100292.91;;;12.25;100.00
8286;BME280;4181;43.416;24.598;2023-05-09T09:04:08;100308.25;;;12.31;100.00
8286;BME280;4181;43.416;24.598;2023-05-09T09:06:36;100315.38;;;12.32;100.00
8286;BME280;4181;43.416;24.598;2023-05-09T09:09:04;100324.94;;;12.29;100.00
8286;BME280;4181;43.416;24.598;2023-05-09T09:11:30;100318.63;;;12.29;100.00
8286;BME280;4181;43.416;24.598;2023-05-09T09:14:00;100317.19;;;12.48;100.00
8286;BME280;4181;43.416;24.598;2023-05-09T09:16:27;100331.09;;;12.41;100.00
8286;BME280;4181;43.416;24.598;2023-05-09T09:18:55;100330.78;;;12.38;100.00
8286;BME280;4181;43.416;24.598;2023-05-09T09:21:22;100329.16;;;12.42;100.00
8286;BME280;4181;43.416;24.598;2023-05-09T09:23:50;100362.75;;;12.11;100.00
8286;BME280;4181;43.416;24.598;2023-05-09T09:26:16;100340.97;;;12.21;100.00
8286;BME280;4181;43.416;24.598;2023-05-09T09:28:42;100333.72;;;12.31;100.00
8286;BME280;4181;43.416;24.598;2023-05-09T09:31:29;100332.88;;;12.31;100.00
8286;BME280;4181;43.416;24.598;2023-05-09T09:34:00;100347.97;;;12.12;100.00
8286;BME280;4181;43.416;24.598;2023-05-09T09:36:29;100345.63;;;12.20;100.00
8286;BME280;4181;43.416;24.598;2023-05-09T09:39:00;100329.84;;;12.27;100.00
8286;BME280;4181;43.416;24.598;2023-05-09T09:41:36;100339.63;;;12.23;100.00
8286;BME280;4181;43.416;24.598;2023-05-09T09:46:52;100345.63;;;12.20;100.00
8286;BME280;4181;43.416;24.598;2023-05-09T09:49:23;100319.31;;;12.41;100.00
8286;BME280;4181;43.416;24.598;2023-05-09T09:51:54;100326.31;;;12.32;100.00
8286;BME280;4181;43.416;24.598;2023-05-09T09:54:21;100329.22;;;12.20;100.00
8286;BME280;4181;43.416;24.598;2023-05-09T09:56:48;100330.94;;;12.26;100.00
8286;BME280;4181;43.416;24.598;2023-05-09T09:59:16;100343.03;;;12.09;100.00
8286;BME280;4181;43.416;24.598;2023-05-09T10:02:03;100321.88;;;12.26;100.00
8286;BME280;4181;43.416;24.598;2023-05-09T10:04:33;100324.47;;;12.11;100.00
8286;BME280;4181;43.416;24.598;2023-05-09T10:07:03;100310.78;;;12.11;100.00
8286;BME280;4181;43.416;24.598;2023-05-09T10:09:30;100299.94;;;12.21;100.00
8286;BME280;4181;43.416;24.598;2023-05-09T10:12:01;100308.47;;;12.24;100.00
8286;BME280;4181;43.416;24.598;2023-05-09T10:14:30;100296.78;;;12.34;100.00
8286;BME280;4181;43.416;24.598;2023-05-09T10:16:56;100297.31;;;12.31;100.00
8286;BME280;4181;43.416;24.598;2023-05-09T10:19:25;100295.16;;;12.33;100.00
8286;BME280;4181;43.416;24.598;2023-05-09T10:22:04;100279.78;;;12.58;100.00
8286;BME280;4181;43.416;24.598;2023-05-09T10:24:47;100267.84;;;12.69;100.00
8286;BME280;4181;43.416;24.598;2023-05-09T10:27:18;100269.66;;;12.59;100.00
8286;BME280;4181;43.416;24.598;2023-05-09T10:29:50;100290.50;;;12.60;100.00
8286;BME280;4181;43.416;24.598;2023-05-09T10:32:26;100260.63;;;12.58;100.00
8286;BME280;4181;43.416;24.598;2023-05-09T10:35:01;100258.31;;;12.77;100.00
8286;BME280;4181;43.416;24.598;2023-05-09T10:37:29;100273.97;;;12.50;100.00
8286;BME280;4181;43.416;24.598;2023-05-09T10:39:56;100285.94;;;12.44;100.00
8286;BME280;4181;43.416;24.598;2023-05-09T10:42:22;100289.56;;;12.49;100.00
8286;BME280;4181;43.416;24.598;2023-05-09T10:44:50;100284.97;;;12.55;100.00
8286;BME280;4181;43.416;24.598;2023-05-09T10:47:18;100294.25;;;12.54;100.00
8286;BME280;4181;43.416;24.598;2023-05-09T10:49:44;100274.44;;;12.73;100.00
8286;BME280;4181;43.416;24.598;2023-05-09T10:52:10;100267.44;;;12.88;100.00
8286;BME280;4181;43.416;24.598;2023-05-09T10:54:36;100269.50;;;13.07;100.00
8286;BME280;4181;43.416;24.598;2023-05-09T10:57:02;100285.84;;;12.97;100.00
8286;BME280;4181;43.416;24.598;2023-05-09T10:59:42;100286.41;;;12.99;100.00
8286;BME280;4181;43.416;24.598;2023-05-09T11:02:12;100276.25;;;13.31;100.00
8286;BME280;4181;43.416;24.598;2023-05-09T11:04:39;100290.69;;;13.17;100.00
8286;BME280;4181;43.416;24.598;2023-05-09T11:07:24;100295.16;;;12.96;100.00
8286;BME280;4181;43.416;24.598;2023-05-09T11:10:14;100287.59;;;13.08;100.00
8286;BME280;4181;43.416;24.598;2023-05-09T11:12:55;100308.91;;;13.01;100.00
8286;BME280;4181;43.416;24.598;2023-05-09T11:15:21;100301.72;;;13.00;100.00
8286;BME280;4181;43.416;24.598;2023-05-09T11:17:50;100295.66;;;13.25;100.00
8286;BME280;4181;43.416;24.598;2023-05-09T11:20:28;100276.28;;;13.41;100.00
8286;BME280;4181;43.416;24.598;2023-05-09T11:22:58;100287.34;;;13.61;100.00
8286;BME280;4181;43.416;24.598;2023-05-09T11:25:25;100283.03;;;13.80;100.00
8286;BME280;4181;43.416;24.598;2023-05-09T11:27:57;100290.72;;;13.73;100.00
8286;BME280;4181;43.416;24.598;2023-05-09T11:30:34;100320.78;;;13.58;100.00
8286;BME280;4181;43.416;24.598;2023-05-09T11:33:02;100318.78;;;13.44;100.00
8286;BME280;4181;43.416;24.598;2023-05-09T11:35:31;100309.97;;;13.93;100.00
8286;BME280;4181;43.416;24.598;2023-05-09T11:38:04;100334.34;;;13.33;100.00
8286;BME280;4181;43.416;24.598;2023-05-09T11:40:33;100339.22;;;13.26;100.00
8286;BME280;4181;43.416;24.598;2023-05-09T11:42:59;100329.44;;;13.40;100.00
8286;BME280;4181;43.416;24.598;2023-05-09T11:45:27;100329.22;;;13.52;100.00
8286;BME280;4181;43.416;24.598;2023-05-09T11:47:54;100338.03;;;13.59;100.00
8286;BME280;4181;43.416;24.598;2023-05-09T11:50:21;100340.03;;;13.68;100.00
8286;BME280;4181;43.416;24.598;2023-05-09T11:52:47;100343.06;;;13.77;100.00
8286;BME280;4181;43.416;24.598;2023-05-09T11:55:15;100353.84;;;13.88;100.00
8286;BME280;4181;43.416;24.598;2023-05-09T11:57:41;100364.81;;;13.88;100.00
8286;BME280;4181;43.416;24.598;2023-05-09T12:00:08;100370.81;;;13.85;100.00
8286;BME280;4181;43.416;24.598;2023-05-09T12:02:35;100379.25;;;13.74;100.00
8286;BME280;4181;43.416;24.598;2023-05-09T12:05:09;100402.50;;;13.61;100.00
8286;BME280;4181;43.416;24.598;2023-05-09T12:07:38;100401.22;;;13.37;100.00
8286;BME280;4181;43.416;24.598;2023-05-09T12:10:09;100404.47;;;13.29;100.00
8286;BME280;4181;43.416;24.598;2023-05-09T12:12:44;100367.44;;;13.63;100.00
8286;BME280;4181;43.416;24.598;2023-05-09T12:15:11;100355.28;;;13.49;100.00
8286;BME280;4181;43.416;24.598;2023-05-09T12:17:38;100349.13;;;13.32;100.00
8286;BME280;4181;43.416;24.598;2023-05-09T12:20:04;100331.66;;;13.43;100.00
8286;BME280;4181;43.416;24.598;2023-05-09T12:22:30;100343.03;;;13.25;100.00
8286;BME280;4181;43.416;24.598;2023-05-09T12:24:59;100339.50;;;13.25;100.00
8286;BME280;4181;43.416;24.598;2023-05-09T12:27:26;100317.84;;;13.23;100.00
8286;BME280;4181;43.416;24.598;2023-05-09T12:29:53;100331.44;;;13.08;100.00
8286;BME280;4181;43.416;24.598;2023-05-09T12:32:19;100311.47;;;13.13;100.00
8286;BME280;4181;43.416;24.598;2023-05-09T12:34:45;100312.28;;;13.13;100.00
8286;BME280;4181;43.416;24.598;2023-05-09T12:37:17;100302.22;;;13.24;100.00
8286;BME280;4181;43.416;24.598;2023-05-09T12:40:04;100290.22;;;13.30;100.00
8286;BME280;4181;43.416;24.598;2023-05-09T12:42:34;100266.16;;;13.42;100.00
8286;BME280;4181;43.416;24.598;2023-05-09T12:45:00;100291.03;;;13.35;100.00
8286;BME280;4181;43.416;24.598;2023-05-09T12:47:28;100297.63;;;13.34;100.00
8286;BME280;4181;43.416;24.598;2023-05-09T12:50:11;100273.56;;;13.41;100.00
8286;BME280;4181;43.416;24.598;2023-05-09T12:52:40;100258.03;;;13.67;100.00
8286;BME280;4181;43.416;24.598;2023-05-09T12:55:13;100257.53;;;13.75;100.00
8286;BME280;4181;43.416;24.598;2023-05-09T12:57:39;100247.38;;;13.80;100.00
8286;BME280;4181;43.416;24.598;2023-05-09T13:00:07;100257.03;;;13.93;100.00
8286;BME280;4181;43.416;24.598;2023-05-09T13:02:40;100264.44;;;13.92;100.00
8286;BME280;4181;43.416;24.598;2023-05-09T13:05:18;100285.25;;;13.83;100.00
8286;BME280;4181;43.416;24.598;2023-05-09T13:07:45;100303.56;;;13.68;100.00